Maldives Meteorological Service

SYNOP

Station Code SYNOP
43555
AAXX 28064 43555 12470 72904 10307 20248 30112 40114 60001 82231 333 58000 82818 87078 =
43533
AAXX 28064 43533 12470 72705 10305 20265 30113 40115 60001 83202 333 59002 83818 86077=
43577
AAXX 28064 43577 12462 71803 10310 20252 30119 40121 60001 82242 333 58005 82818 87077=
43588
AAXX 28064 43588 12465 79902 10296 20253 30119 40120 60001 82938 333 58007 82818 81919 87276=
43599
AAXX 28064 43599 12460 71807 10310 20256 30122 40124 60001 83902 333 58006 82817 81918 87076 =
Last Updated : 2020-09-28 11:00:51